sensor_id;sensor_type;location;lat;lon;timestamp;P1;durP1;ratioP1;P2;durP2;ratioP2
37349;SDS011;23231;52.358;4.926;2022-10-19T00:02:38;9.30;;;2.97;;
37349;SDS011;23231;52.358;4.926;2022-10-19T00:07:39;7.80;;;3.00;;
37349;SDS011;23231;52.358;4.926;2022-10-19T00:12:39;6.60;;;2.25;;
37349;SDS011;23231;52.358;4.926;2022-10-19T00:17:39;7.18;;;2.08;;
37349;SDS011;23231;52.358;4.926;2022-10-19T00:22:42;8.35;;;2.40;;
37349;SDS011;23231;52.358;4.926;2022-10-19T00:27:42;5.80;;;2.17;;
37349;SDS011;23231;52.358;4.926;2022-10-19T00:32:43;7.40;;;2.38;;
37349;SDS011;23231;52.358;4.926;2022-10-19T00:37:43;9.02;;;3.00;;
37349;SDS011;23231;52.358;4.926;2022-10-19T00:42:44;9.68;;;2.97;;
37349;SDS011;23231;52.358;4.926;2022-10-19T00:47:44;5.80;;;2.72;;
37349;SDS011;23231;52.358;4.926;2022-10-19T00:52:45;6.00;;;2.63;;
37349;SDS011;23231;52.358;4.926;2022-10-19T00:57:45;7.53;;;2.47;;
37349;SDS011;23231;52.358;4.926;2022-10-19T01:02:46;5.18;;;2.05;;
37349;SDS011;23231;52.358;4.926;2022-10-19T01:07:46;8.23;;;2.70;;
37349;SDS011;23231;52.358;4.926;2022-10-19T01:12:54;7.00;;;2.60;;
37349;SDS011;23231;52.358;4.926;2022-10-19T01:28:47;5.40;;;2.60;;
37349;SDS011;23231;52.358;4.926;2022-10-19T01:34:03;6.10;;;2.45;;
37349;SDS011;23231;52.358;4.926;2022-10-19T01:39:08;7.15;;;2.20;;
37349;SDS011;23231;52.358;4.926;2022-10-19T01:44:17;7.30;;;2.40;;
37349;SDS011;23231;52.358;4.926;2022-10-19T01:49:30;5.28;;;2.28;;
37349;SDS011;23231;52.358;4.926;2022-10-19T01:54:38;6.22;;;2.30;;
37349;SDS011;23231;52.358;4.926;2022-10-19T01:59:42;4.88;;;2.40;;
37349;SDS011;23231;52.358;4.926;2022-10-19T02:04:43;6.05;;;2.55;;
37349;SDS011;23231;52.358;4.926;2022-10-19T02:09:44;8.63;;;2.60;;
37349;SDS011;23231;52.358;4.926;2022-10-19T02:14:45;7.50;;;2.20;;
37349;SDS011;23231;52.358;4.926;2022-10-19T02:19:47;5.80;;;2.00;;
37349;SDS011;23231;52.358;4.926;2022-10-19T02:24:47;7.10;;;2.00;;
37349;SDS011;23231;52.358;4.926;2022-10-19T02:29:47;7.07;;;1.90;;
37349;SDS011;23231;52.358;4.926;2022-10-19T02:34:48;5.88;;;2.10;;
37349;SDS011;23231;52.358;4.926;2022-10-19T02:39:49;4.78;;;1.92;;
37349;SDS011;23231;52.358;4.926;2022-10-19T02:44:50;5.13;;;1.58;;
37349;SDS011;23231;52.358;4.926;2022-10-19T02:49:55;4.30;;;1.60;;
37349;SDS011;23231;52.358;4.926;2022-10-19T02:54:55;3.97;;;1.63;;
37349;SDS011;23231;52.358;4.926;2022-10-19T02:59:55;6.05;;;1.63;;
37349;SDS011;23231;52.358;4.926;2022-10-19T03:04:56;6.57;;;2.05;;
37349;SDS011;23231;52.358;4.926;2022-10-19T03:09:56;7.28;;;2.60;;
37349;SDS011;23231;52.358;4.926;2022-10-19T03:14:57;6.60;;;2.30;;
37349;SDS011;23231;52.358;4.926;2022-10-19T03:19:57;5.63;;;2.10;;
37349;SDS011;23231;52.358;4.926;2022-10-19T03:24:57;5.32;;;2.30;;
37349;SDS011;23231;52.358;4.926;2022-10-19T03:29:58;6.28;;;1.92;;
37349;SDS011;23231;52.358;4.926;2022-10-19T03:34:58;7.63;;;2.38;;
37349;SDS011;23231;52.358;4.926;2022-10-19T03:39:58;6.70;;;2.40;;
37349;SDS011;23231;52.358;4.926;2022-10-19T03:44:59;6.50;;;2.08;;
37349;SDS011;23231;52.358;4.926;2022-10-19T03:49:59;7.78;;;2.33;;
37349;SDS011;23231;52.358;4.926;2022-10-19T03:55:00;6.40;;;2.33;;
37349;SDS011;23231;52.358;4.926;2022-10-19T04:00:00;5.72;;;2.33;;
37349;SDS011;23231;52.358;4.926;2022-10-19T04:05:01;12.90;;;3.50;;
37349;SDS011;23231;52.358;4.926;2022-10-19T04:10:02;6.97;;;2.67;;
37349;SDS011;23231;52.358;4.926;2022-10-19T04:15:02;5.65;;;2.35;;
37349;SDS011;23231;52.358;4.926;2022-10-19T04:20:03;8.18;;;2.65;;
37349;SDS011;23231;52.358;4.926;2022-10-19T04:25:04;9.50;;;2.60;;
37349;SDS011;23231;52.358;4.926;2022-10-19T04:30:05;8.23;;;3.05;;
37349;SDS011;23231;52.358;4.926;2022-10-19T04:35:06;10.02;;;3.20;;
37349;SDS011;23231;52.358;4.926;2022-10-19T04:40:07;7.97;;;3.40;;
37349;SDS011;23231;52.358;4.926;2022-10-19T04:45:08;7.05;;;3.22;;
37349;SDS011;23231;52.358;4.926;2022-10-19T04:50:09;6.75;;;3.00;;
37349;SDS011;23231;52.358;4.926;2022-10-19T04:55:09;5.85;;;2.72;;
37349;SDS011;23231;52.358;4.926;2022-10-19T05:00:09;9.15;;;2.70;;
37349;SDS011;23231;52.358;4.926;2022-10-19T05:05:11;6.97;;;3.00;;
37349;SDS011;23231;52.358;4.926;2022-10-19T05:10:12;6.47;;;2.72;;
37349;SDS011;23231;52.358;4.926;2022-10-19T05:15:13;7.03;;;2.40;;
37349;SDS011;23231;52.358;4.926;2022-10-19T05:20:13;8.00;;;2.78;;
37349;SDS011;23231;52.358;4.926;2022-10-19T05:25:14;9.68;;;3.72;;
37349;SDS011;23231;52.358;4.926;2022-10-19T05:30:14;12.55;;;3.05;;
37349;SDS011;23231;52.358;4.926;2022-10-19T05:35:14;8.15;;;2.78;;
37349;SDS011;23231;52.358;4.926;2022-10-19T05:40:15;12.23;;;3.42;;
37349;SDS011;23231;52.358;4.926;2022-10-19T05:45:15;8.88;;;3.50;;
37349;SDS011;23231;52.358;4.926;2022-10-19T05:50:16;9.80;;;3.13;;
37349;SDS011;23231;52.358;4.926;2022-10-19T05:55:16;8.02;;;3.00;;
37349;SDS011;23231;52.358;4.926;2022-10-19T06:00:17;8.73;;;3.40;;
37349;SDS011;23231;52.358;4.926;2022-10-19T06:05:17;9.02;;;3.45;;
37349;SDS011;23231;52.358;4.926;2022-10-19T06:10:17;8.85;;;2.80;;
37349;SDS011;23231;52.358;4.926;2022-10-19T06:15:19;8.02;;;3.05;;
37349;SDS011;23231;52.358;4.926;2022-10-19T06:20:20;10.35;;;3.35;;
37349;SDS011;23231;52.358;4.926;2022-10-19T06:25:20;13.25;;;3.65;;
37349;SDS011;23231;52.358;4.926;2022-10-19T06:30:21;9.02;;;3.72;;
37349;SDS011;23231;52.358;4.926;2022-10-19T06:35:21;10.88;;;3.00;;
37349;SDS011;23231;52.358;4.926;2022-10-19T06:40:22;9.10;;;2.85;;
37349;SDS011;23231;52.358;4.926;2022-10-19T06:45:23;10.65;;;3.50;;
37349;SDS011;23231;52.358;4.926;2022-10-19T06:50:23;7.18;;;3.75;;
37349;SDS011;23231;52.358;4.926;2022-10-19T06:55:24;13.45;;;3.90;;
37349;SDS011;23231;52.358;4.926;2022-10-19T07:00:25;7.88;;;3.30;;
37349;SDS011;23231;52.358;4.926;2022-10-19T07:05:25;9.82;;;3.53;;
37349;SDS011;23231;52.358;4.926;2022-10-19T07:10:26;10.10;;;3.55;;
37349;SDS011;23231;52.358;4.926;2022-10-19T07:15:26;8.93;;;3.20;;
37349;SDS011;23231;52.358;4.926;2022-10-19T07:20:26;10.52;;;2.90;;
37349;SDS011;23231;52.358;4.926;2022-10-19T07:25:27;9.77;;;2.47;;
37349;SDS011;23231;52.358;4.926;2022-10-19T07:30:29;9.43;;;2.45;;
37349;SDS011;23231;52.358;4.926;2022-10-19T07:35:29;7.50;;;1.92;;
37349;SDS011;23231;52.358;4.926;2022-10-19T07:40:29;6.30;;;2.05;;
37349;SDS011;23231;52.358;4.926;2022-10-19T07:45:31;9.55;;;2.35;;
37349;SDS011;23231;52.358;4.926;2022-10-19T07:50:31;6.60;;;1.52;;
37349;SDS011;23231;52.358;4.926;2022-10-19T07:55:32;8.40;;;1.70;;
37349;SDS011;23231;52.358;4.926;2022-10-19T08:00:33;11.15;;;2.13;;
37349;SDS011;23231;52.358;4.926;2022-10-19T08:05:33;7.78;;;1.85;;
37349;SDS011;23231;52.358;4.926;2022-10-19T08:10:34;7.35;;;1.70;;
37349;SDS011;23231;52.358;4.926;2022-10-19T08:15:34;6.50;;;1.45;;
37349;SDS011;23231;52.358;4.926;2022-10-19T08:20:35;6.28;;;1.48;;
37349;SDS011;23231;52.358;4.926;2022-10-19T08:25:35;7.05;;;1.85;;
37349;SDS011;23231;52.358;4.926;2022-10-19T08:30:36;2.92;;;1.30;;
37349;SDS011;23231;52.358;4.926;2022-10-19T08:35:36;6.80;;;1.55;;
37349;SDS011;23231;52.358;4.926;2022-10-19T08:40:37;12.02;;;1.60;;
37349;SDS011;23231;52.358;4.926;2022-10-19T08:50:39;4.72;;;1.33;;
37349;SDS011;23231;52.358;4.926;2022-10-19T08:55:58;9.32;;;1.50;;
37349;SDS011;23231;52.358;4.926;2022-10-19T09:01:21;10.20;;;2.10;;
37349;SDS011;23231;52.358;4.926;2022-10-19T09:06:40;9.15;;;1.70;;
37349;SDS011;23231;52.358;4.926;2022-10-19T09:11:50;6.25;;;1.75;;
37349;SDS011;23231;52.358;4.926;2022-10-19T09:17:05;9.07;;;1.63;;
37349;SDS011;23231;52.358;4.926;2022-10-19T09:27:21;7.72;;;1.58;;
37349;SDS011;23231;52.358;4.926;2022-10-19T09:32:31;8.75;;;2.05;;
37349;SDS011;23231;52.358;4.926;2022-10-19T09:37:36;5.40;;;1.67;;
37349;SDS011;23231;52.358;4.926;2022-10-19T09:42:39;7.30;;;1.45;;
37349;SDS011;23231;52.358;4.926;2022-10-19T09:47:46;8.95;;;1.92;;
37349;SDS011;23231;52.358;4.926;2022-10-19T09:52:51;6.13;;;1.30;;
37349;SDS011;23231;52.358;4.926;2022-10-19T09:58:19;6.20;;;1.20;;
37349;SDS011;23231;52.358;4.926;2022-10-19T10:03:24;5.35;;;1.10;;
37349;SDS011;23231;52.358;4.926;2022-10-19T10:08:26;7.32;;;1.30;;
37349;SDS011;23231;52.358;4.926;2022-10-19T10:13:29;4.18;;;1.10;;
37349;SDS011;23231;52.358;4.926;2022-10-19T10:18:30;9.20;;;1.85;;
37349;SDS011;23231;52.358;4.926;2022-10-19T10:23:35;6.93;;;1.23;;
37349;SDS011;23231;52.358;4.926;2022-10-19T10:28:36;5.28;;;1.10;;
37349;SDS011;23231;52.358;4.926;2022-10-19T10:33:51;3.88;;;1.02;;
37349;SDS011;23231;52.358;4.926;2022-10-19T10:39:02;5.22;;;1.48;;
37349;SDS011;23231;52.358;4.926;2022-10-19T10:44:07;4.68;;;1.05;;
37349;SDS011;23231;52.358;4.926;2022-10-19T10:49:19;5.07;;;1.38;;
37349;SDS011;23231;52.358;4.926;2022-10-19T10:54:26;6.55;;;1.30;;
37349;SDS011;23231;52.358;4.926;2022-10-19T10:59:38;5.60;;;1.27;;
37349;SDS011;23231;52.358;4.926;2022-10-19T11:04:41;4.78;;;1.20;;
37349;SDS011;23231;52.358;4.926;2022-10-19T11:09:53;4.35;;;1.00;;
37349;SDS011;23231;52.358;4.926;2022-10-19T11:15:15;6.38;;;0.98;;
37349;SDS011;23231;52.358;4.926;2022-10-19T11:20:21;4.65;;;1.30;;
37349;SDS011;23231;52.358;4.926;2022-10-19T11:36:52;5.22;;;1.00;;
37349;SDS011;23231;52.358;4.926;2022-10-19T11:58:33;6.75;;;1.63;;
37349;SDS011;23231;52.358;4.926;2022-10-19T12:04:03;4.68;;;1.40;;
37349;SDS011;23231;52.358;4.926;2022-10-19T12:19:41;3.90;;;1.25;;
37349;SDS011;23231;52.358;4.926;2022-10-19T12:24:43;7.15;;;1.48;;
37349;SDS011;23231;52.358;4.926;2022-10-19T12:29:45;6.80;;;1.30;;
37349;SDS011;23231;52.358;4.926;2022-10-19T12:40:22;5.05;;;1.30;;
37349;SDS011;23231;52.358;4.926;2022-10-19T12:55:57;5.55;;;1.40;;
37349;SDS011;23231;52.358;4.926;2022-10-19T13:06:34;7.70;;;1.83;;
37349;SDS011;23231;52.358;4.926;2022-10-19T13:11:36;7.43;;;1.65;;
37349;SDS011;23231;52.358;4.926;2022-10-19T13:22:32;6.55;;;1.50;;
37349;SDS011;23231;52.358;4.926;2022-10-19T13:27:36;8.20;;;1.50;;
37349;SDS011;23231;52.358;4.926;2022-10-19T13:32:41;6.80;;;1.27;;
37349;SDS011;23231;52.358;4.926;2022-10-19T13:37:43;6.70;;;1.60;;
37349;SDS011;23231;52.358;4.926;2022-10-19T13:42:43;6.60;;;1.42;;
37349;SDS011;23231;52.358;4.926;2022-10-19T13:47:44;8.15;;;1.70;;
37349;SDS011;23231;52.358;4.926;2022-10-19T14:14:14;4.38;;;1.80;;
37349;SDS011;23231;52.358;4.926;2022-10-19T14:19:22;5.97;;;1.77;;
37349;SDS011;23231;52.358;4.926;2022-10-19T14:24:30;6.72;;;1.63;;
37349;SDS011;23231;52.358;4.926;2022-10-19T14:29:42;9.07;;;2.22;;
37349;SDS011;23231;52.358;4.926;2022-10-19T14:34:45;7.55;;;2.05;;
37349;SDS011;23231;52.358;4.926;2022-10-19T14:40:04;8.13;;;2.13;;
37349;SDS011;23231;52.358;4.926;2022-10-19T14:45:13;9.73;;;1.95;;
37349;SDS011;23231;52.358;4.926;2022-10-19T14:50:14;7.53;;;2.00;;
37349;SDS011;23231;52.358;4.926;2022-10-19T14:55:16;8.25;;;2.05;;
37349;SDS011;23231;52.358;4.926;2022-10-19T15:00:18;7.28;;;1.98;;
37349;SDS011;23231;52.358;4.926;2022-10-19T15:05:23;9.52;;;2.38;;
37349;SDS011;23231;52.358;4.926;2022-10-19T15:10:26;8.48;;;2.33;;
37349;SDS011;23231;52.358;4.926;2022-10-19T15:15:40;6.68;;;2.20;;
37349;SDS011;23231;52.358;4.926;2022-10-19T15:20:41;9.10;;;2.40;;
37349;SDS011;23231;52.358;4.926;2022-10-19T15:25:41;6.18;;;2.20;;
37349;SDS011;23231;52.358;4.926;2022-10-19T15:30:42;10.90;;;2.60;;
37349;SDS011;23231;52.358;4.926;2022-10-19T15:35:42;8.52;;;2.13;;
37349;SDS011;23231;52.358;4.926;2022-10-19T15:40:44;6.47;;;2.55;;
37349;SDS011;23231;52.358;4.926;2022-10-19T15:45:57;8.38;;;2.75;;
37349;SDS011;23231;52.358;4.926;2022-10-19T15:51:01;8.07;;;2.60;;
37349;SDS011;23231;52.358;4.926;2022-10-19T15:56:02;7.15;;;3.00;;
37349;SDS011;23231;52.358;4.926;2022-10-19T16:01:02;8.00;;;3.00;;
37349;SDS011;23231;52.358;4.926;2022-10-19T16:06:03;7.25;;;2.80;;
37349;SDS011;23231;52.358;4.926;2022-10-19T16:11:03;6.07;;;2.72;;
37349;SDS011;23231;52.358;4.926;2022-10-19T16:16:05;9.15;;;2.80;;
37349;SDS011;23231;52.358;4.926;2022-10-19T16:21:06;5.78;;;2.90;;
37349;SDS011;23231;52.358;4.926;2022-10-19T16:26:06;7.95;;;2.75;;
37349;SDS011;23231;52.358;4.926;2022-10-19T16:31:06;9.00;;;3.10;;
37349;SDS011;23231;52.358;4.926;2022-10-19T16:36:07;6.82;;;3.33;;
37349;SDS011;23231;52.358;4.926;2022-10-19T16:41:08;9.13;;;3.25;;
37349;SDS011;23231;52.358;4.926;2022-10-19T16:46:09;6.88;;;3.20;;
37349;SDS011;23231;52.358;4.926;2022-10-19T16:51:18;9.55;;;3.40;;
37349;SDS011;23231;52.358;4.926;2022-10-19T16:56:20;7.78;;;3.25;;
37349;SDS011;23231;52.358;4.926;2022-10-19T17:01:21;6.70;;;3.05;;
37349;SDS011;23231;52.358;4.926;2022-10-19T17:06:22;10.80;;;3.45;;
37349;SDS011;23231;52.358;4.926;2022-10-19T17:11:27;8.65;;;3.53;;
37349;SDS011;23231;52.358;4.926;2022-10-19T17:16:30;9.35;;;4.00;;
37349;SDS011;23231;52.358;4.926;2022-10-19T17:21:32;9.27;;;3.60;;
37349;SDS011;23231;52.358;4.926;2022-10-19T17:26:35;9.40;;;4.20;;
37349;SDS011;23231;52.358;4.926;2022-10-19T17:31:37;11.23;;;4.82;;
37349;SDS011;23231;52.358;4.926;2022-10-19T17:36:39;12.05;;;4.82;;
37349;SDS011;23231;52.358;4.926;2022-10-19T17:41:46;10.55;;;4.90;;
37349;SDS011;23231;52.358;4.926;2022-10-19T17:46:48;12.83;;;4.77;;
37349;SDS011;23231;52.358;4.926;2022-10-19T17:51:50;11.27;;;5.47;;
37349;SDS011;23231;52.358;4.926;2022-10-19T17:56:51;10.13;;;5.25;;
37349;SDS011;23231;52.358;4.926;2022-10-19T18:01:51;14.38;;;5.72;;
37349;SDS011;23231;52.358;4.926;2022-10-19T18:06:52;8.55;;;5.32;;
37349;SDS011;23231;52.358;4.926;2022-10-19T18:11:52;10.45;;;6.05;;
37349;SDS011;23231;52.358;4.926;2022-10-19T18:16:53;10.70;;;5.45;;
37349;SDS011;23231;52.358;4.926;2022-10-19T18:21:53;8.75;;;5.20;;
37349;SDS011;23231;52.358;4.926;2022-10-19T18:26:54;10.40;;;5.65;;
37349;SDS011;23231;52.358;4.926;2022-10-19T18:31:54;9.63;;;5.43;;
37349;SDS011;23231;52.358;4.926;2022-10-19T18:36:54;13.05;;;5.88;;
37349;SDS011;23231;52.358;4.926;2022-10-19T18:41:55;12.07;;;5.07;;
37349;SDS011;23231;52.358;4.926;2022-10-19T18:46:55;16.23;;;5.85;;
37349;SDS011;23231;52.358;4.926;2022-10-19T18:51:56;9.98;;;5.80;;
37349;SDS011;23231;52.358;4.926;2022-10-19T18:56:56;11.38;;;5.50;;
37349;SDS011;23231;52.358;4.926;2022-10-19T19:01:57;15.32;;;5.75;;
37349;SDS011;23231;52.358;4.926;2022-10-19T19:06:57;12.10;;;5.28;;
37349;SDS011;23231;52.358;4.926;2022-10-19T19:11:58;12.23;;;5.13;;
37349;SDS011;23231;52.358;4.926;2022-10-19T19:16:58;12.70;;;5.40;;
37349;SDS011;23231;52.358;4.926;2022-10-19T19:21:59;11.75;;;5.55;;
37349;SDS011;23231;52.358;4.926;2022-10-19T19:27:03;12.35;;;5.20;;
37349;SDS011;23231;52.358;4.926;2022-10-19T19:32:03;12.82;;;5.75;;
37349;SDS011;23231;52.358;4.926;2022-10-19T19:37:04;10.10;;;5.22;;
37349;SDS011;23231;52.358;4.926;2022-10-19T19:42:04;8.75;;;4.85;;
37349;SDS011;23231;52.358;4.926;2022-10-19T19:47:05;10.93;;;4.88;;
37349;SDS011;23231;52.358;4.926;2022-10-19T19:52:07;14.75;;;5.95;;
37349;SDS011;23231;52.358;4.926;2022-10-19T19:57:07;9.80;;;5.03;;
37349;SDS011;23231;52.358;4.926;2022-10-19T20:02:08;13.38;;;5.45;;
37349;SDS011;23231;52.358;4.926;2022-10-19T20:07:09;12.15;;;4.90;;
37349;SDS011;23231;52.358;4.926;2022-10-19T20:12:09;9.77;;;5.07;;
37349;SDS011;23231;52.358;4.926;2022-10-19T20:17:09;12.90;;;5.32;;
37349;SDS011;23231;52.358;4.926;2022-10-19T20:22:10;9.25;;;5.47;;
37349;SDS011;23231;52.358;4.926;2022-10-19T20:27:11;8.32;;;5.03;;
37349;SDS011;23231;52.358;4.926;2022-10-19T20:32:12;13.43;;;5.10;;
37349;SDS011;23231;52.358;4.926;2022-10-19T20:37:12;9.57;;;4.82;;
37349;SDS011;23231;52.358;4.926;2022-10-19T20:42:13;11.15;;;5.32;;
37349;SDS011;23231;52.358;4.926;2022-10-19T20:47:14;9.05;;;5.45;;
37349;SDS011;23231;52.358;4.926;2022-10-19T20:52:15;10.68;;;5.22;;
37349;SDS011;23231;52.358;4.926;2022-10-19T20:57:15;9.55;;;5.57;;
37349;SDS011;23231;52.358;4.926;2022-10-19T21:02:15;11.93;;;5.47;;
37349;SDS011;23231;52.358;4.926;2022-10-19T21:07:16;13.75;;;5.95;;
37349;SDS011;23231;52.358;4.926;2022-10-19T21:12:16;11.20;;;5.07;;
37349;SDS011;23231;52.358;4.926;2022-10-19T21:17:17;10.48;;;5.22;;
37349;SDS011;23231;52.358;4.926;2022-10-19T21:22:17;11.43;;;5.40;;
37349;SDS011;23231;52.358;4.926;2022-10-19T21:27:17;8.15;;;5.13;;
37349;SDS011;23231;52.358;4.926;2022-10-19T21:32:18;11.55;;;5.70;;
37349;SDS011;23231;52.358;4.926;2022-10-19T21:37:19;10.48;;;5.30;;
37349;SDS011;23231;52.358;4.926;2022-10-19T21:42:20;11.23;;;5.15;;
37349;SDS011;23231;52.358;4.926;2022-10-19T21:47:20;10.93;;;5.45;;
37349;SDS011;23231;52.358;4.926;2022-10-19T21:52:21;7.55;;;4.85;;
37349;SDS011;23231;52.358;4.926;2022-10-19T21:57:21;8.52;;;5.03;;
37349;SDS011;23231;52.358;4.926;2022-10-19T22:02:21;7.97;;;5.00;;
37349;SDS011;23231;52.358;4.926;2022-10-19T22:07:22;10.70;;;5.28;;
37349;SDS011;23231;52.358;4.926;2022-10-19T22:12:22;10.48;;;5.72;;
37349;SDS011;23231;52.358;4.926;2022-10-19T22:17:23;10.63;;;5.22;;
37349;SDS011;23231;52.358;4.926;2022-10-19T22:22:23;10.10;;;5.03;;
37349;SDS011;23231;52.358;4.926;2022-10-19T22:27:23;10.20;;;4.82;;
37349;SDS011;23231;52.358;4.926;2022-10-19T22:37:43;9.88;;;5.40;;
37349;SDS011;23231;52.358;4.926;2022-10-19T22:42:44;10.93;;;5.68;;
37349;SDS011;23231;52.358;4.926;2022-10-19T22:47:44;8.48;;;5.15;;
37349;SDS011;23231;52.358;4.926;2022-10-19T22:52:45;12.38;;;5.07;;
37349;SDS011;23231;52.358;4.926;2022-10-19T22:57:45;7.20;;;5.05;;
37349;SDS011;23231;52.358;4.926;2022-10-19T23:02:46;9.32;;;5.10;;
37349;SDS011;23231;52.358;4.926;2022-10-19T23:07:46;11.45;;;5.60;;
37349;SDS011;23231;52.358;4.926;2022-10-19T23:12:47;9.00;;;5.55;;
37349;SDS011;23231;52.358;4.926;2022-10-19T23:17:48;9.55;;;5.57;;
37349;SDS011;23231;52.358;4.926;2022-10-19T23:22:49;11.25;;;6.00;;
37349;SDS011;23231;52.358;4.926;2022-10-19T23:27:50;9.35;;;5.97;;
37349;SDS011;23231;52.358;4.926;2022-10-19T23:32:50;9.23;;;5.78;;
37349;SDS011;23231;52.358;4.926;2022-10-19T23:37:51;8.45;;;5.18;;
37349;SDS011;23231;52.358;4.926;2022-10-19T23:42:51;11.40;;;5.50;;
37349;SDS011;23231;52.358;4.926;2022-10-19T23:47:51;8.82;;;5.45;;
37349;SDS011;23231;52.358;4.926;2022-10-19T23:52:52;10.75;;;6.07;;
37349;SDS011;23231;52.358;4.926;2022-10-19T23:57:52;12.23;;;5.90;;
